Time;durP1;ratioP1;P1;durP2;ratioP2;P2;SDS_P1;SDS_P2;PMS_P1;PMS_P2;Temp;Humidity;BMP_temperature;BMP_pressure;BME280_temperature;BME280_humidity;BME280_pressure;Samples;Min_cycle;Max_cycle;Signal;HPM_P1;HPM_P2
2022/11/01 00:01:17;;;;;;;26.30;12.05;;;;;;;;;;6181966;23;20047;-87
2022/11/01 00:03:44;;;;;;;26.90;10.93;;;;;;;;;;6182350;23;20012;-87
2022/11/01 00:06:10;;;;;;;28.17;12.25;;;;;;;;;;6205769;23;20012;-87
2022/11/01 00:08:36;;;;;;;26.00;11.85;;;;;;;;;;6206237;23;20009;-86
2022/11/01 00:11:06;;;;;;;27.63;10.57;;;;;;;;;;6182061;23;20288;-87
2022/11/01 00:13:32;;;;;;;27.27;12.00;;;;;;;;;;6206749;23;20411;-87
2022/11/01 00:15:58;;;;;;;32.53;11.32;;;;;;;;;;6207689;23;20004;-87
2022/11/01 00:18:25;;;;;;;31.55;11.43;;;;;;;;;;6183614;23;20017;-87
2022/11/01 00:20:51;;;;;;;32.67;12.50;;;;;;;;;;6209048;23;20008;-86
2022/11/01 00:23:29;;;;;;;23.92;10.70;;;;;;;;;;6182285;23;20097;-87
2022/11/01 00:26:01;;;;;;;32.72;13.55;;;;;;;;;;6183921;23;20013;-87
2022/11/01 00:28:28;;;;;;;35.55;12.40;;;;;;;;;;6209520;23;20005;-87
2022/11/01 00:30:55;;;;;;;35.20;10.95;;;;;;;;;;6209065;23;20015;-87
2022/11/01 00:33:21;;;;;;;27.88;11.57;;;;;;;;;;6207974;23;20004;-86
2022/11/01 00:35:47;;;;;;;34.65;12.65;;;;;;;;;;6184186;23;20317;-87
2022/11/01 00:38:14;;;;;;;32.65;12.05;;;;;;;;;;6184073;23;20097;-87
2022/11/01 00:40:42;;;;;;;30.35;12.45;;;;;;;;;;6208130;23;20159;-88
2022/11/01 00:43:08;;;;;;;30.10;11.73;;;;;;;;;;6184006;23;20349;-87
2022/11/01 00:45:34;;;;;;;25.17;10.38;;;;;;;;;;6211577;23;20004;-87
2022/11/01 00:48:00;;;;;;;28.73;11.10;;;;;;;;;;6209313;23;20074;-87
2022/11/01 00:50:26;;;;;;;31.42;12.18;;;;;;;;;;6190446;22;20017;-88
2022/11/01 00:52:55;;;;;;;21.13;10.90;;;;;;;;;;6209649;23;20013;-87
2022/11/01 00:55:21;;;;;;;30.83;11.90;;;;;;;;;;6208150;23;20114;-88
2022/11/01 00:57:47;;;;;;;25.33;10.85;;;;;;;;;;6209670;23;20004;-88
2022/11/01 01:00:14;;;;;;;30.15;11.10;;;;;;;;;;6206854;23;20096;-87
2022/11/01 01:02:44;;;;;;;27.63;11.05;;;;;;;;;;6210861;23;20839;-88
2022/11/01 01:05:10;;;;;;;25.45;11.27;;;;;;;;;;6184824;23;20033;-88
2022/11/01 01:07:42;;;;;;;18.05;9.27;;;;;;;;;;6209894;23;20059;-88
2022/11/01 01:10:16;;;;;;;28.67;12.07;;;;;;;;;;6233180;23;20005;-87
2022/11/01 01:12:42;;;;;;;24.73;10.73;;;;;;;;;;6206800;23;20433;-87
2022/11/01 01:15:09;;;;;;;25.27;10.52;;;;;;;;;;6208230;23;20008;-87
2022/11/01 01:17:35;;;;;;;32.53;10.43;;;;;;;;;;6209752;23;20495;-87
2022/11/01 01:20:03;;;;;;;23.33;10.50;;;;;;;;;;6211305;23;20021;-87
2022/11/01 01:22:29;;;;;;;29.10;10.60;;;;;;;;;;6207958;23;20008;-87
2022/11/01 01:24:56;;;;;;;24.77;9.95;;;;;;;;;;6213124;23;20348;-87
2022/11/01 01:27:22;;;;;;;25.50;9.55;;;;;;;;;;6213484;23;20009;-88
2022/11/01 01:29:48;;;;;;;25.10;10.77;;;;;;;;;;6213764;23;20721;-88
2022/11/01 01:32:15;;;;;;;22.20;10.85;;;;;;;;;;6212274;23;20037;-87
2022/11/01 01:34:41;;;;;;;25.77;10.18;;;;;;;;;;6210205;23;20765;-88
2022/11/01 01:37:14;;;;;;;22.30;9.40;;;;;;;;;;6187406;23;20480;-88
2022/11/01 01:39:40;;;;;;;19.88;10.00;;;;;;;;;;6242443;23;20008;-87
2022/11/01 01:42:25;;;;;;;26.25;10.00;;;;;;;;;;6216249;23;20641;-86
2022/11/01 01:45:17;;;;;;;18.60;9.45;;;;;;;;;;6216218;23;20016;-87
2022/11/01 01:47:46;;;;;;;27.30;9.75;;;;;;;;;;6242860;23;20421;-87
2022/11/01 01:50:12;;;;;;;23.48;9.07;;;;;;;;;;6243033;22;20038;-87
2022/11/01 01:52:43;;;;;;;25.25;10.10;;;;;;;;;;6240034;23;20009;-87
2022/11/01 01:55:10;;;;;;;20.38;9.02;;;;;;;;;;6214129;23;20021;-87
2022/11/01 01:57:38;;;;;;;18.67;8.52;;;;;;;;;;6218483;23;20512;-87
2022/11/01 02:00:04;;;;;;;18.63;8.95;;;;;;;;;;6239351;23;20012;-87
2022/11/01 02:02:33;;;;;;;20.10;11.15;;;;;;;;;;6217375;23;20008;-87
2022/11/01 02:05:21;;;;;;;28.02;9.90;;;;;;;;;;6189172;23;20039;-87
2022/11/01 02:07:48;;;;;;;21.23;9.68;;;;;;;;;;6215996;23;20001;-87
2022/11/01 02:10:15;;;;;;;22.48;9.13;;;;;;;;;;6236276;23;19996;-87
2022/11/01 02:12:45;;;;;;;31.70;10.18;;;;;;;;;;6215212;23;20012;-86
2022/11/01 02:15:12;;;;;;;24.30;9.60;;;;;;;;;;6212104;23;20015;-85
2022/11/01 02:17:57;;;;;;;23.98;8.82;;;;;;;;;;6231498;23;20015;-87
2022/11/01 02:20:38;;;;;;;26.42;8.90;;;;;;;;;;6217771;23;20071;-87
2022/11/01 02:23:25;;;;;;;23.48;7.70;;;;;;;;;;6216682;23;20008;-87
2022/11/01 02:25:51;;;;;;;18.80;8.70;;;;;;;;;;6217881;23;20012;-87
2022/11/01 02:28:26;;;;;;;19.70;8.63;;;;;;;;;;6239531;23;20005;-87
2022/11/01 02:31:11;;;;;;;20.90;8.48;;;;;;;;;;6240283;23;20073;-87
2022/11/01 02:33:46;;;;;;;20.55;7.90;;;;;;;;;;6239849;23;20009;-86
2022/11/01 02:36:16;;;;;;;21.75;8.50;;;;;;;;;;6216956;23;20004;-88
2022/11/01 02:39:15;;;;;;;20.50;8.35;;;;;;;;;;6215628;23;20066;-86
2022/11/01 02:41:50;;;;;;;15.50;7.95;;;;;;;;;;6167777;23;20016;-87
2022/11/01 02:44:22;;;;;;;20.05;8.90;;;;;;;;;;6237729;23;20096;-87
2022/11/01 02:47:00;;;;;;;16.08;8.48;;;;;;;;;;6237699;23;20012;-86
2022/11/01 02:49:35;;;;;;;18.92;7.82;;;;;;;;;;6230901;22;20286;-87
2022/11/01 02:52:01;;;;;;;24.92;8.38;;;;;;;;;;6249854;22;20501;-87
2022/11/01 02:54:32;;;;;;;19.30;9.13;;;;;;;;;;6249601;22;20010;-87
2022/11/01 02:57:02;;;;;;;24.17;7.88;;;;;;;;;;6249613;22;20551;-87
2022/11/01 02:59:29;;;;;;;18.00;8.82;;;;;;;;;;6250297;22;20008;-87
2022/11/01 03:02:19;;;;;;;29.80;8.82;;;;;;;;;;6249348;22;20018;-87
2022/11/01 03:04:46;;;;;;;19.90;8.63;;;;;;;;;;6256850;22;20062;-87
2022/11/01 03:07:18;;;;;;;28.63;8.52;;;;;;;;;;6276834;22;20059;-87
2022/11/01 03:09:45;;;;;;;18.52;8.13;;;;;;;;;;6250673;22;20008;-87
2022/11/01 03:12:15;;;;;;;27.40;9.10;;;;;;;;;;6249256;22;20031;-87
2022/11/01 03:14:48;;;;;;;26.00;8.52;;;;;;;;;;6250337;22;20007;-87
2022/11/01 03:17:17;;;;;;;15.27;7.43;;;;;;;;;;6248320;22;20487;-87
2022/11/01 03:19:49;;;;;;;24.10;8.55;;;;;;;;;;6248459;22;20004;-87
2022/11/01 03:22:17;;;;;;;20.75;7.90;;;;;;;;;;6250043;22;20004;-87
2022/11/01 03:24:49;;;;;;;22.25;8.07;;;;;;;;;;6250862;22;20004;-88
2022/11/01 03:27:54;;;;;;;28.10;7.70;;;;;;;;;;6249229;22;20436;-88
2022/11/01 03:30:20;;;;;;;17.58;7.82;;;;;;;;;;6097818;23;20010;-88
2022/11/01 03:32:50;;;;;;;15.85;6.70;;;;;;;;;;6099367;23;20447;-88
2022/11/01 03:35:36;;;;;;;15.80;7.30;;;;;;;;;;6122497;23;20006;-88
2022/11/01 03:38:05;;;;;;;16.85;7.32;;;;;;;;;;6097723;23;20017;-88
2022/11/01 03:40:32;;;;;;;24.48;8.02;;;;;;;;;;6098156;22;20010;-87
2022/11/01 03:43:00;;;;;;;17.60;8.18;;;;;;;;;;6250160;22;20009;-88
2022/11/01 03:45:27;;;;;;;18.98;7.40;;;;;;;;;;6249135;22;20018;-87
2022/11/01 03:47:53;;;;;;;23.48;7.22;;;;;;;;;;6276116;22;20008;-88
2022/11/01 03:50:22;;;;;;;21.63;7.68;;;;;;;;;;6229393;22;20076;-88
2022/11/01 03:52:48;;;;;;;20.67;8.30;;;;;;;;;;6238886;23;20019;-87
2022/11/01 03:55:19;;;;;;;25.63;7.93;;;;;;;;;;6214249;23;20472;-87
2022/11/01 03:57:53;;;;;;;18.27;6.88;;;;;;;;;;6239567;23;20488;-88
2022/11/01 04:00:25;;;;;;;24.88;7.35;;;;;;;;;;6239976;23;20010;-88
2022/11/01 04:02:53;;;;;;;21.25;6.90;;;;;;;;;;6237389;23;20029;-88
2022/11/01 04:05:20;;;;;;;28.45;8.15;;;;;;;;;;6236848;23;20008;-87
2022/11/01 04:07:46;;;;;;;21.05;7.47;;;;;;;;;;6238142;23;20008;-87
2022/11/01 04:10:12;;;;;;;16.35;5.22;;;;;;;;;;6213592;23;20019;-87
2022/11/01 04:12:38;;;;;;;13.63;6.65;;;;;;;;;;6215206;23;20000;-87
2022/11/01 04:20:51;;;;;;;15.75;5.82;;;;;;;;;;6214948;23;20036;-87
2022/11/01 04:23:17;;;;;;;13.73;5.88;;;;;;;;;;6212380;23;20038;-87
2022/11/01 04:25:46;;;;;;;13.95;5.57;;;;;;;;;;6215197;23;20446;-87
2022/11/01 04:28:13;;;;;;;14.65;5.88;;;;;;;;;;6236426;23;20004;-87
2022/11/01 04:30:42;;;;;;;10.70;5.28;;;;;;;;;;6232464;23;20011;-87
2022/11/01 04:33:09;;;;;;;16.30;6.15;;;;;;;;;;6207186;23;20063;-87
2022/11/01 04:35:36;;;;;;;13.60;5.53;;;;;;;;;;6230595;23;20062;-89
2022/11/01 04:38:03;;;;;;;14.88;5.65;;;;;;;;;;6233699;23;20032;-88
2022/11/01 04:40:29;;;;;;;16.75;6.35;;;;;;;;;;6233749;23;20095;-88
2022/11/01 04:42:55;;;;;;;17.70;6.82;;;;;;;;;;6208806;23;20042;-88
2022/11/01 04:45:21;;;;;;;14.77;3.65;;;;;;;;;;6231917;23;20004;-88
2022/11/01 04:47:51;;;;;;;13.35;5.18;;;;;;;;;;6208751;23;20460;-87
2022/11/01 04:50:20;;;;;;;13.93;4.60;;;;;;;;;;6212201;22;20080;-87
2022/11/01 04:52:49;;;;;;;21.17;5.70;;;;;;;;;;6208794;23;20013;-86
2022/11/01 04:55:15;;;;;;;14.40;5.28;;;;;;;;;;6208790;23;20352;-87
2022/11/01 04:57:42;;;;;;;16.95;5.80;;;;;;;;;;6211623;23;20016;-88
2022/11/01 05:00:10;;;;;;;9.90;4.97;;;;;;;;;;6210573;23;20004;-87
2022/11/01 05:02:36;;;;;;;10.82;3.30;;;;;;;;;;6209886;23;20444;-87
2022/11/01 05:05:06;;;;;;;13.82;5.18;;;;;;;;;;6212866;23;20008;-87
2022/11/01 05:07:35;;;;;;;15.13;4.40;;;;;;;;;;6210520;23;20791;-87
2022/11/01 05:10:01;;;;;;;12.27;3.92;;;;;;;;;;6236470;23;20005;-86
2022/11/01 05:12:28;;;;;;;9.50;4.05;;;;;;;;;;6209197;23;20333;-84
2022/11/01 05:14:54;;;;;;;8.07;3.90;;;;;;;;;;6211291;23;20029;-87
2022/11/01 05:17:20;;;;;;;18.98;4.68;;;;;;;;;;6210065;23;20013;-87
2022/11/01 05:19:46;;;;;;;10.20;4.65;;;;;;;;;;6235932;23;20016;-87
2022/11/01 05:22:12;;;;;;;13.15;3.95;;;;;;;;;;6239758;23;20004;-87
2022/11/01 05:24:38;;;;;;;12.27;3.95;;;;;;;;;;6213885;23;20091;-87
2022/11/01 05:27:10;;;;;;;11.30;4.45;;;;;;;;;;6219050;23;20011;-87
2022/11/01 05:29:36;;;;;;;7.05;3.00;;;;;;;;;;6218958;23;20012;-89
2022/11/01 05:32:02;;;;;;;5.85;3.05;;;;;;;;;;6216540;23;20016;-88
2022/11/01 05:34:28;;;;;;;11.77;3.67;;;;;;;;;;6219386;23;20381;-88
2022/11/01 05:36:54;;;;;;;10.32;3.78;;;;;;;;;;6216521;23;20005;-87
2022/11/01 05:39:20;;;;;;;13.98;6.20;;;;;;;;;;6245627;23;20052;-88
2022/11/01 05:41:46;;;;;;;13.10;4.80;;;;;;;;;;6216702;23;20016;-88
2022/11/01 05:44:12;;;;;;;7.18;3.83;;;;;;;;;;6241279;23;20034;-87
2022/11/01 05:46:42;;;;;;;9.05;3.95;;;;;;;;;;6241126;23;20009;-88
2022/11/01 05:49:08;;;;;;;14.85;4.75;;;;;;;;;;6214765;22;20011;-88
2022/11/01 05:51:34;;;;;;;6.40;3.35;;;;;;;;;;6216048;22;20025;-88
2022/11/01 05:54:01;;;;;;;4.78;2.35;;;;;;;;;;6216101;23;20016;-89
2022/11/01 05:56:28;;;;;;;5.40;2.63;;;;;;;;;;6213125;23;20016;-90
2022/11/01 05:58:54;;;;;;;8.27;2.78;;;;;;;;;;6215197;23;20013;-88
2022/11/01 06:01:23;;;;;;;10.23;2.80;;;;;;;;;;6212770;23;20043;-89
2022/11/01 06:03:49;;;;;;;5.03;1.65;;;;;;;;;;6239806;23;20013;-89
2022/11/01 06:06:16;;;;;;;4.30;1.88;;;;;;;;;;6213312;23;20452;-89
2022/11/01 06:08:45;;;;;;;4.45;1.25;;;;;;;;;;6213511;23;20124;-89
2022/11/01 06:11:11;;;;;;;3.03;1.27;;;;;;;;;;6239229;23;20009;-90
2022/11/01 06:13:37;;;;;;;7.32;1.50;;;;;;;;;;6238439;23;20016;-88
2022/11/01 06:16:04;;;;;;;3.17;1.52;;;;;;;;;;6236481;23;20012;-89
2022/11/01 06:18:31;;;;;;;4.22;1.55;;;;;;;;;;6238715;23;20015;-88
2022/11/01 06:20:58;;;;;;;7.53;1.20;;;;;;;;;;6236862;23;20011;-89
2022/11/01 06:23:28;;;;;;;3.00;1.27;;;;;;;;;;6235148;23;20009;-87
2022/11/01 06:26:04;;;;;;;3.38;0.90;;;;;;;;;;6211395;23;20011;-86
2022/11/01 06:28:30;;;;;;;5.28;0.98;;;;;;;;;;6211424;23;20008;-86
2022/11/01 06:31:00;;;;;;;9.68;1.30;;;;;;;;;;6234874;23;20004;-86
2022/11/01 06:33:29;;;;;;;1.83;0.80;;;;;;;;;;6236470;23;20062;-86
2022/11/01 06:35:55;;;;;;;3.60;1.02;;;;;;;;;;6214566;23;20087;-87
2022/11/01 06:38:22;;;;;;;1.08;0.55;;;;;;;;;;6237031;23;20379;-86
2022/11/01 06:40:51;;;;;;;3.95;1.30;;;;;;;;;;6213482;23;20009;-86
2022/11/01 06:43:17;;;;;;;2.47;0.88;;;;;;;;;;6238030;23;20444;-86
2022/11/01 06:45:43;;;;;;;3.28;0.70;;;;;;;;;;6210833;23;20061;-86
2022/11/01 06:48:09;;;;;;;5.70;0.93;;;;;;;;;;6238056;23;20004;-87
2022/11/01 06:50:47;;;;;;;9.50;1.08;;;;;;;;;;6214697;22;20767;-87
2022/11/01 06:53:13;;;;;;;4.38;0.73;;;;;;;;;;6213588;23;20024;-86
2022/11/01 06:55:39;;;;;;;1.40;0.73;;;;;;;;;;6217501;23;20009;-86
2022/11/01 06:58:05;;;;;;;4.70;1.20;;;;;;;;;;6212907;23;20348;-87
2022/11/01 07:00:32;;;;;;;2.95;0.77;;;;;;;;;;6214070;23;20005;-86
2022/11/01 07:03:00;;;;;;;6.22;1.05;;;;;;;;;;6214192;23;20012;-86
2022/11/01 07:05:27;;;;;;;5.18;0.98;;;;;;;;;;6237382;23;20452;-87
2022/11/01 07:08:11;;;;;;;4.30;1.10;;;;;;;;;;6238984;23;20815;-86
2022/11/01 07:10:39;;;;;;;1.17;0.70;;;;;;;;;;6218474;23;19984;-86
2022/11/01 07:13:06;;;;;;;7.00;1.23;;;;;;;;;;6238241;23;20015;-86
2022/11/01 07:15:33;;;;;;;5.53;1.50;;;;;;;;;;6214817;23;20071;-86
2022/11/01 07:18:00;;;;;;;7.70;1.02;;;;;;;;;;6213433;23;20013;-86
2022/11/01 07:20:26;;;;;;;7.70;1.08;;;;;;;;;;6240418;23;20086;-86
2022/11/01 07:23:02;;;;;;;7.47;1.20;;;;;;;;;;6215497;23;20004;-87
2022/11/01 07:25:29;;;;;;;3.20;0.77;;;;;;;;;;6241606;23;20016;-85
2022/11/01 07:27:56;;;;;;;9.35;1.52;;;;;;;;;;6214954;23;20008;-85
2022/11/01 07:30:25;;;;;;;3.72;0.93;;;;;;;;;;6239868;23;20004;-87
2022/11/01 07:32:58;;;;;;;5.70;0.80;;;;;;;;;;6214224;23;20019;-87
2022/11/01 07:35:28;;;;;;;7.88;1.48;;;;;;;;;;6238664;23;20942;-88
2022/11/01 07:37:58;;;;;;;2.90;0.77;;;;;;;;;;6240177;23;20453;-87
2022/11/01 07:40:26;;;;;;;7.30;1.80;;;;;;;;;;6221615;23;20440;-87
2022/11/01 07:42:53;;;;;;;9.75;1.20;;;;;;;;;;6244483;23;20437;-88
2022/11/01 07:45:21;;;;;;;6.63;1.23;;;;;;;;;;6210539;23;20013;-87
2022/11/01 07:47:47;;;;;;;10.00;1.63;;;;;;;;;;6211086;23;20337;-87
2022/11/01 07:50:13;;;;;;;10.30;1.23;;;;;;;;;;6225810;22;20436;-87
2022/11/01 07:52:39;;;;;;;10.15;1.60;;;;;;;;;;6222160;22;20008;-87
2022/11/01 07:55:07;;;;;;;12.38;1.77;;;;;;;;;;6247440;22;20027;-87
2022/11/01 07:57:38;;;;;;;6.32;2.05;;;;;;;;;;6247966;22;20039;-87
2022/11/01 08:00:05;;;;;;;8.40;1.55;;;;;;;;;;6243943;22;20019;-87
2022/11/01 08:02:31;;;;;;;11.75;1.95;;;;;;;;;;6242012;22;20027;-87
2022/11/01 08:04:57;;;;;;;5.25;1.38;;;;;;;;;;6218003;22;20012;-86
2022/11/01 08:07:23;;;;;;;12.93;1.45;;;;;;;;;;6217901;22;20008;-86
2022/11/01 08:09:49;;;;;;;10.43;1.35;;;;;;;;;;6218328;22;20012;-87
2022/11/01 08:12:15;;;;;;;5.20;1.40;;;;;;;;;;6218030;22;20003;-86
2022/11/01 08:14:41;;;;;;;13.82;0.85;;;;;;;;;;6217414;22;20012;-87
2022/11/01 08:17:07;;;;;;;6.28;1.38;;;;;;;;;;6218088;22;20011;-87
2022/11/01 08:19:33;;;;;;;5.82;1.70;;;;;;;;;;6242625;22;20011;-87
2022/11/01 08:21:59;;;;;;;8.27;1.35;;;;;;;;;;6217489;22;20343;-87
2022/11/01 08:24:26;;;;;;;8.52;2.13;;;;;;;;;;6219140;22;20000;-87
2022/11/01 08:26:52;;;;;;;12.10;1.60;;;;;;;;;;6217189;22;20443;-87
2022/11/01 08:29:19;;;;;;;10.80;1.80;;;;;;;;;;6217646;22;20012;-87
2022/11/01 08:31:46;;;;;;;4.32;1.65;;;;;;;;;;6242299;22;20457;-86
2022/11/01 08:34:13;;;;;;;8.57;1.45;;;;;;;;;;6269402;22;20313;-86
2022/11/01 08:36:39;;;;;;;4.07;1.40;;;;;;;;;;6244283;22;20012;-86
2022/11/01 08:39:05;;;;;;;6.70;1.45;;;;;;;;;;6215801;22;20099;-87
2022/11/01 08:41:31;;;;;;;9.95;1.35;;;;;;;;;;6242760;22;20504;-87
2022/11/01 08:43:57;;;;;;;14.77;1.98;;;;;;;;;;6218735;22;20039;-87
2022/11/01 08:46:23;;;;;;;10.07;1.67;;;;;;;;;;6243387;22;20204;-87
2022/11/01 08:48:58;;;;;;;9.07;1.73;;;;;;;;;;6269346;22;19995;-87
2022/11/01 08:51:25;;;;;;;19.48;1.98;;;;;;;;;;6219595;22;20051;-87
2022/11/01 08:53:58;;;;;;;12.43;3.00;;;;;;;;;;6208890;23;20009;-87
2022/11/01 08:56:25;;;;;;;8.35;2.25;;;;;;;;;;6233194;23;20024;-87
2022/11/01 08:58:52;;;;;;;15.95;2.28;;;;;;;;;;6208360;23;20020;-87
2022/11/01 09:01:18;;;;;;;16.48;2.70;;;;;;;;;;6205398;23;20016;-87
2022/11/01 09:03:44;;;;;;;13.55;2.00;;;;;;;;;;6209010;23;20005;-87
2022/11/01 09:06:12;;;;;;;15.45;2.13;;;;;;;;;;6231421;23;20005;-87
2022/11/01 09:08:38;;;;;;;23.45;2.95;;;;;;;;;;6209165;23;20012;-87
2022/11/01 09:11:05;;;;;;;17.48;3.47;;;;;;;;;;6231044;23;20477;-87
2022/11/01 09:13:31;;;;;;;9.55;2.58;;;;;;;;;;6234376;23;20325;-87
2022/11/01 09:15:57;;;;;;;15.38;3.47;;;;;;;;;;6206164;23;20047;-87
2022/11/01 09:18:23;;;;;;;9.55;2.65;;;;;;;;;;6234709;23;20062;-88
2022/11/01 09:20:54;;;;;;;24.08;2.33;;;;;;;;;;6209392;23;20009;-87
2022/11/01 09:23:20;;;;;;;14.63;3.17;;;;;;;;;;6234178;23;20012;-87
2022/11/01 09:25:46;;;;;;;9.95;2.33;;;;;;;;;;6233248;23;20011;-86
2022/11/01 09:28:12;;;;;;;14.60;1.80;;;;;;;;;;6235927;23;20373;-86
2022/11/01 09:30:40;;;;;;;10.05;2.17;;;;;;;;;;6234493;23;20076;-86
2022/11/01 09:33:07;;;;;;;11.55;1.80;;;;;;;;;;6211138;23;20011;-87
2022/11/01 09:35:33;;;;;;;21.50;2.58;;;;;;;;;;6208797;23;20019;-87
2022/11/01 09:38:00;;;;;;;10.70;2.58;;;;;;;;;;6210076;23;20091;-87
2022/11/01 09:40:28;;;;;;;14.13;1.95;;;;;;;;;;6209143;23;20059;-87
2022/11/01 09:42:54;;;;;;;14.30;2.42;;;;;;;;;;6234698;23;20008;-87
2022/11/01 09:45:22;;;;;;;11.82;1.52;;;;;;;;;;6209520;23;20009;-87
2022/11/01 09:47:55;;;;;;;7.47;2.17;;;;;;;;;;6231218;23;20539;-87
2022/11/01 09:50:26;;;;;;;18.98;2.83;;;;;;;;;;6245796;22;20444;-87
2022/11/01 09:52:53;;;;;;;14.23;3.25;;;;;;;;;;6244197;22;20012;-87
2022/11/01 09:55:23;;;;;;;16.30;3.30;;;;;;;;;;6218845;22;20046;-87
2022/11/01 09:57:55;;;;;;;15.20;3.03;;;;;;;;;;6270656;22;20332;-87
2022/11/01 10:00:21;;;;;;;8.68;1.90;;;;;;;;;;6242588;22;20018;-87
2022/11/01 10:02:50;;;;;;;13.00;2.90;;;;;;;;;;6242353;22;20015;-87
2022/11/01 10:05:19;;;;;;;23.00;3.60;;;;;;;;;;6243598;22;20054;-87
2022/11/01 10:07:54;;;;;;;11.20;4.18;;;;;;;;;;6271136;22;20031;-87
2022/11/01 10:10:33;;;;;;;14.38;3.45;;;;;;;;;;6270692;22;20443;-87
2022/11/01 10:13:20;;;;;;;9.05;3.00;;;;;;;;;;6269395;22;20104;-86
2022/11/01 10:15:46;;;;;;;;;;;;;;;;;;6119199;23;20014;-87
2022/11/01 10:18:12;;;;;;;;;;;;;;;;;;6252711;22;19922;-87
2022/11/01 10:20:39;;;;;;;16.95;2.90;;;;;;;;;;6250413;22;20312;-87
2022/11/01 10:23:06;;;;;;;17.25;3.03;;;;;;;;;;6243118;22;20004;-87
2022/11/01 10:25:33;;;;;;;18.33;3.78;;;;;;;;;;6243438;22;20440;-87
2022/11/01 10:28:18;;;;;;;16.77;2.40;;;;;;;;;;6244776;22;20039;-87
2022/11/01 10:30:46;;;;;;;18.02;3.55;;;;;;;;;;6241685;22;20007;-86
2022/11/01 10:33:21;;;;;;;11.68;2.90;;;;;;;;;;6243550;22;20000;-87
2022/11/01 10:35:51;;;;;;;15.35;1.95;;;;;;;;;;6270570;22;19996;-86
2022/11/01 10:38:37;;;;;;;8.05;2.33;;;;;;;;;;6242113;22;20622;-86
2022/11/01 10:41:04;;;;;;;;;;;;;;;;;;6243992;22;20450;-86
2022/11/01 10:43:32;;;;;;;8.15;1.98;;;;;;;;;;6242952;22;20239;-86
2022/11/01 10:46:01;;;;;;;31.73;6.85;;;;;;;;;;6242824;22;20000;-86
2022/11/01 10:48:33;;;;;;;12.70;2.22;;;;;;;;;;6243378;22;19999;-86
2022/11/01 10:51:02;;;;;;;17.65;2.67;;;;;;;;;;6270151;22;20012;-87
2022/11/01 10:53:29;;;;;;;11.68;2.75;;;;;;;;;;6242887;22;20003;-87
2022/11/01 10:55:58;;;;;;;22.73;3.60;;;;;;;;;;6269662;22;20003;-87
2022/11/01 10:58:42;;;;;;;20.98;4.00;;;;;;;;;;6269596;22;20423;-86
2022/11/01 11:01:11;;;;;;;11.02;1.98;;;;;;;;;;6241040;22;20443;-86
2022/11/01 11:03:40;;;;;;;12.88;1.83;;;;;;;;;;6272252;22;20003;-86
2022/11/01 11:06:08;;;;;;;13.82;1.73;;;;;;;;;;6242051;22;20004;-86
2022/11/01 11:08:36;;;;;;;6.55;1.52;;;;;;;;;;6271240;22;20432;-86
2022/11/01 11:11:04;;;;;;;13.20;2.55;;;;;;;;;;6269754;22;20016;-87
2022/11/01 11:13:30;;;;;;;12.20;2.80;;;;;;;;;;6272357;22;20015;-87
2022/11/01 11:15:59;;;;;;;12.13;2.08;;;;;;;;;;6242835;22;20122;-87
2022/11/01 11:18:36;;;;;;;14.13;2.90;;;;;;;;;;6244097;22;20018;-87
2022/11/01 11:21:03;;;;;;;19.42;3.13;;;;;;;;;;6244094;22;20019;-87
2022/11/01 11:23:32;;;;;;;16.23;3.22;;;;;;;;;;6243677;22;20329;-86
2022/11/01 11:26:03;;;;;;;14.25;3.13;;;;;;;;;;6242448;22;20012;-87
2022/11/01 11:28:30;;;;;;;21.63;2.90;;;;;;;;;;6242477;22;20067;-87
2022/11/01 11:30:57;;;;;;;16.10;3.05;;;;;;;;;;6269307;22;20004;-87
2022/11/01 11:33:23;;;;;;;10.70;4.18;;;;;;;;;;6240208;22;20007;-86
2022/11/01 11:35:57;;;;;;;12.75;2.53;;;;;;;;;;6219814;22;20062;-86
2022/11/01 11:38:40;;;;;;;15.85;1.77;;;;;;;;;;6240275;22;20004;-87
2022/11/01 11:41:06;;;;;;;16.73;2.90;;;;;;;;;;6243392;22;20012;-87
2022/11/01 11:43:39;;;;;;;14.82;3.20;;;;;;;;;;6243542;22;20004;-87
2022/11/01 11:46:13;;;;;;;11.65;1.98;;;;;;;;;;6240420;22;20000;-87
2022/11/01 11:48:46;;;;;;;10.70;2.33;;;;;;;;;;6243545;22;20003;-87
2022/11/01 11:51:12;;;;;;;14.07;3.45;;;;;;;;;;6200311;22;20016;-87
2022/11/01 11:53:39;;;;;;;9.63;2.55;;;;;;;;;;6232708;23;20005;-86
2022/11/01 11:56:07;;;;;;;9.32;2.80;;;;;;;;;;6234488;23;20016;-87
2022/11/01 11:58:34;;;;;;;19.95;3.28;;;;;;;;;;6209912;23;20051;-87
2022/11/01 12:01:05;;;;;;;20.23;2.83;;;;;;;;;;6209977;23;20008;-87
2022/11/01 12:03:46;;;;;;;19.13;2.35;;;;;;;;;;6233222;23;20436;-87
2022/11/01 12:06:16;;;;;;;15.73;3.83;;;;;;;;;;6231841;23;20000;-87
2022/11/01 12:08:44;;;;;;;19.20;2.83;;;;;;;;;;6209447;23;20005;-87
2022/11/01 12:11:11;;;;;;;24.88;4.45;;;;;;;;;;6209390;23;20082;-87
2022/11/01 12:13:42;;;;;;;19.27;3.22;;;;;;;;;;6209061;23;20369;-87
2022/11/01 12:16:15;;;;;;;9.70;1.92;;;;;;;;;;6208323;23;20015;-87
2022/11/01 12:18:48;;;;;;;18.35;3.10;;;;;;;;;;6234576;23;20058;-87
2022/11/01 12:21:34;;;;;;;12.32;1.95;;;;;;;;;;6232790;23;20032;-87
2022/11/01 12:24:00;;;;;;;;;;;;;;;;;;6234803;23;20528;-87
2022/11/01 12:26:34;;;;;;;13.55;2.70;;;;;;;;;;6206973;23;19939;-87
2022/11/01 12:29:06;;;;;;;19.08;3.83;;;;;;;;;;6232830;23;20040;-87
2022/11/01 12:31:32;;;;;;;16.30;3.40;;;;;;;;;;6234569;23;20341;-87
2022/11/01 12:34:02;;;;;;;14.05;3.55;;;;;;;;;;6207233;23;20004;-87
2022/11/01 12:36:44;;;;;;;17.25;2.78;;;;;;;;;;6232864;23;20059;-87
2022/11/01 12:39:19;;;;;;;12.45;3.20;;;;;;;;;;6209545;23;20417;-87
2022/11/01 12:41:48;;;;;;;7.43;1.73;;;;;;;;;;6233094;23;20066;-87
2022/11/01 12:44:28;;;;;;;9.00;1.58;;;;;;;;;;6233370;23;20747;-87
2022/11/01 12:46:57;;;;;;;7.80;2.10;;;;;;;;;;6233527;23;20044;-87
2022/11/01 12:49:37;;;;;;;21.73;2.65;;;;;;;;;;6232407;23;20344;-88
2022/11/01 12:52:26;;;;;;;10.05;1.70;;;;;;;;;;6236671;22;20115;-86
2022/11/01 12:55:11;;;;;;;11.20;2.92;;;;;;;;;;6195505;23;20008;-87
2022/11/01 12:57:38;;;;;;;8.63;2.05;;;;;;;;;;6235456;23;20013;-87
2022/11/01 13:00:05;;;;;;;12.20;3.95;;;;;;;;;;6206296;23;20501;-87
2022/11/01 13:02:40;;;;;;;12.70;2.63;;;;;;;;;;6233215;23;20012;-87
2022/11/01 13:05:15;;;;;;;15.40;2.13;;;;;;;;;;6233284;23;20056;-87
2022/11/01 13:07:47;;;;;;;15.27;3.05;;;;;;;;;;6230583;23;20501;-87
2022/11/01 13:10:26;;;;;;;9.13;1.88;;;;;;;;;;6235600;23;20009;-86
2022/11/01 13:13:01;;;;;;;15.82;2.28;;;;;;;;;;6234495;23;20429;-87
2022/11/01 13:15:45;;;;;;;15.77;2.60;;;;;;;;;;6235405;23;20009;-87
2022/11/01 13:18:26;;;;;;;15.88;2.20;;;;;;;;;;6237147;23;20727;-87
2022/11/01 13:21:11;;;;;;;4.95;1.17;;;;;;;;;;6236774;23;20018;-87
2022/11/01 13:23:40;;;;;;;19.60;3.22;;;;;;;;;;6240466;23;20032;-87
2022/11/01 13:26:12;;;;;;;12.13;2.25;;;;;;;;;;6239711;23;20315;-87
2022/11/01 13:28:41;;;;;;;13.75;2.45;;;;;;;;;;6242672;23;20039;-88
2022/11/01 13:31:07;;;;;;;14.52;2.85;;;;;;;;;;6244078;23;20005;-87
2022/11/01 13:33:39;;;;;;;12.48;2.58;;;;;;;;;;6218212;23;20417;-88
2022/11/01 13:36:17;;;;;;;15.13;2.55;;;;;;;;;;6241391;23;20012;-87
2022/11/01 13:39:03;;;;;;;17.15;2.90;;;;;;;;;;6239254;23;20459;-87
2022/11/01 13:41:29;;;;;;;;;;;;;;;;;;6167215;23;20009;-87
2022/11/01 13:44:25;;;;;;;2.20;1.15;;;;;;;;;;6215017;23;19903;-87
2022/11/01 13:47:06;;;;;;;10.90;2.10;;;;;;;;;;6194910;23;20756;-87
2022/11/01 13:49:59;;;;;;;7.82;1.50;;;;;;;;;;6238438;23;20427;-87
2022/11/01 13:52:29;;;;;;;6.95;1.63;;;;;;;;;;6262154;22;20019;-87
2022/11/01 13:54:58;;;;;;;7.40;1.98;;;;;;;;;;6247076;22;20077;-87
2022/11/01 13:57:25;;;;;;;8.70;1.27;;;;;;;;;;6250015;22;20012;-87
2022/11/01 13:59:52;;;;;;;11.30;2.25;;;;;;;;;;6247509;22;20018;-86
2022/11/01 14:02:26;;;;;;;16.05;1.90;;;;;;;;;;6249083;22;20070;-87
2022/11/01 14:04:59;;;;;;;11.75;2.03;;;;;;;;;;6274926;22;19996;-87
2022/11/01 14:07:26;;;;;;;11.60;2.00;;;;;;;;;;6248706;22;20015;-87
2022/11/01 14:09:55;;;;;;;13.35;2.33;;;;;;;;;;6247612;22;20015;-87
2022/11/01 14:12:35;;;;;;;6.72;1.42;;;;;;;;;;6274881;22;20008;-87
2022/11/01 14:15:17;;;;;;;13.48;2.45;;;;;;;;;;6247446;22;20302;-87
2022/11/01 14:17:56;;;;;;;9.05;1.60;;;;;;;;;;6245664;22;20008;-86
2022/11/01 14:20:26;;;;;;;7.63;1.67;;;;;;;;;;6248382;22;20008;-87
2022/11/01 14:22:53;;;;;;;12.80;1.70;;;;;;;;;;6244732;22;20352;-87
2022/11/01 14:25:19;;;;;;;4.80;1.05;;;;;;;;;;6222543;22;20275;-87
2022/11/01 14:27:46;;;;;;;2.88;1.00;;;;;;;;;;6245843;22;20007;-87
2022/11/01 14:30:19;;;;;;;8.07;2.30;;;;;;;;;;6246722;22;20003;-87
2022/11/01 14:32:58;;;;;;;5.70;1.33;;;;;;;;;;6246931;22;20777;-87
2022/11/01 14:35:26;;;;;;;7.80;2.05;;;;;;;;;;6248148;22;20089;-87
2022/11/01 14:37:54;;;;;;;13.25;2.10;;;;;;;;;;6248886;22;20054;-87
2022/11/01 14:40:35;;;;;;;7.47;1.45;;;;;;;;;;6247139;22;20007;-87
2022/11/01 14:43:09;;;;;;;11.93;1.58;;;;;;;;;;6247347;22;20153;-87
2022/11/01 14:45:38;;;;;;;8.70;1.77;;;;;;;;;;6245472;22;20234;-87
2022/11/01 14:48:31;;;;;;;9.02;1.58;;;;;;;;;;6248058;22;20007;-87
2022/11/01 14:50:57;;;;;;;7.75;1.70;;;;;;;;;;6189064;22;20507;-87
2022/11/01 14:53:30;;;;;;;7.95;1.67;;;;;;;;;;6247834;22;20042;-87
2022/11/01 14:56:05;;;;;;;11.30;1.90;;;;;;;;;;6274547;22;20078;-87